Radiosonde details



Informationen :

Serial : D26020205
Type : Graw DFM
Frequency : 403.010MHz
Launchsite : Tampa Bay Area
Nearest town : Memphis, US (7.4km)

Altitude (Max) : 21495m at 2026-09-01 00:42:58
Speed (Max) : 87km/h at altitude 18554m

Average speed : 20km/h
Average ascent rate : 3m/s
Average descent rate : -10m/s
Ascent rate (Max) : 7.8m/s
Descent rate (Max): -17.2m/s

First frame :
ARGUS2 at 2026-08-31 23:05:55 at altitude 807m (OG: 765m)
Last frame :
ARGUS2 at 2026-09-01 01:13:13 at altitude 3090m (OG: 3048m)

Flighttime : 2h7m18s
Ascent time : 1h37m3s
Descent time : 30m15s
Uptime : -
Killtimer : -

Distance (Straight line distance): 20km

Distance (Route):


Frames : 301


Measurement :

Temperature : 8.0°C
Humidity : 0%
Pressure : 0hPa


Vertical profile (SkewT) :


Elevation profile :



Receiving stations :


Receiver Frames First received Last received
ARGUS2 301 2026-08-31 23:05:55 2026-09-01 01:13:13

Share per receiver :



All frames :


Receiver Date Latitude Longitude Direction Speed Altitude Climb Temperature Humidity Pressure Voltage Killtimer Uptime BKT XDATA
ARGUS22026-09-01 01:13:1327.59925-82.58335224°20km/h3090m-8.9m/s8.0°C0%0hPa0V00:00:0000:00:0000:00:00
ARGUS22026-09-01 01:12:5327.60012-82.58247229°24km/h3283m-8.0m/s7.1°C0%0hPa0V00:00:0000:00:0000:00:00
ARGUS22026-09-01 01:08:1827.61255-82.57995127°13km/h5925m-8.0m/s-6.6°C0%0hPa0V00:00:0000:00:0000:00:00
ARGUS22026-09-01 01:07:5827.61298-82.58060121°15km/h6105m-7.1m/s-7.8°C0%0hPa0V00:00:0000:00:0000:00:00
ARGUS22026-09-01 01:07:1627.61396-82.58192121°15km/h6440m-7.8m/s-10.2°C0%0hPa0V00:00:0000:00:0000:00:00
ARGUS22026-09-01 01:06:5527.61432-82.58256112°13km/h6611m-8.8m/s-11.3°C0%0hPa0V00:00:0000:00:0000:00:00
ARGUS22026-09-01 01:06:3427.61461-82.58319120°16km/h6796m-8.7m/s-11.8°C0%0hPa0V00:00:0000:00:0000:00:00
ARGUS22026-09-01 01:06:1327.61487-82.5840698°11km/h6991m-9.4m/s-12.6°C0%0hPa0V00:00:0000:00:0000:00:00
ARGUS22026-09-01 01:05:4927.61460-82.5845827°9km/h7202m-10.3m/s-13.3°C0%0hPa0V00:00:0000:00:0000:00:00
ARGUS22026-09-01 01:05:2827.61399-82.5846211km/h7394m-11.2m/s-14.5°C0%0hPa0V00:00:0000:00:0000:00:00
ARGUS22026-09-01 01:02:5327.61262-82.58152227°7km/h9171m-10.2m/s-25.7°C0%0hPa0V00:00:0000:00:0000:00:00
ARGUS22026-09-01 01:02:3227.61282-82.58125239°9km/h9381m-10.6m/s-27.2°C0%0hPa0V00:00:0000:00:0000:00:00
ARGUS22026-09-01 01:02:1227.61306-82.58073215°9km/h9645m-13.9m/s-29.2°C0%0hPa0V00:00:0000:00:0000:00:00
ARGUS22026-09-01 01:01:5227.61341-82.58037211°9km/h9917m-13.7m/s-31.2°C0%0hPa0V00:00:0000:00:0000:00:00
ARGUS22026-09-01 01:01:3127.61398-82.58018179°7km/h10200m-16.2m/s-33.6°C0%0hPa0V00:00:0000:00:0000:00:00
ARGUS22026-09-01 01:01:1127.61452-82.58018196°9km/h10524m-14.7m/s-36.3°C0%0hPa0V00:00:0000:00:0000:00:00
ARGUS22026-09-01 01:00:5027.61519-82.57985201°20km/h10851m-16.8m/s-38.6°C0%0hPa0V00:00:0000:00:0000:00:00
ARGUS22026-09-01 01:00:3027.61642-82.57921207°26km/h11215m-17.2m/s-41.7°C0%0hPa0V00:00:0000:00:0000:00:00
ARGUS22026-09-01 01:00:0927.61741-82.57886189°20km/h11543m-15.3m/s-44.4°C0%0hPa0V00:00:0000:00:0000:00:00
ARGUS22026-09-01 00:59:4927.61838-82.57858207°20km/h11752m-12.0m/s-46.2°C0%0hPa0V00:00:0000:00:0000:00:00
ARGUS22026-09-01 00:59:2727.61904-82.57829194°11km/h11935m-7.4m/s-47.7°C0%0hPa0V00:00:0000:00:0000:00:00
ARGUS22026-09-01 00:59:0727.61948-82.57814185°4km/h12079m-7.4m/s-49.0°C0%0hPa0V00:00:0000:00:0000:00:00
ARGUS22026-09-01 00:58:4627.61980-82.57809168°5km/h12256m-10.6m/s-50.5°C0%0hPa0V00:00:0000:00:0000:00:00
ARGUS22026-09-01 00:58:2727.61989-82.57829116°5km/h12483m-11.5m/s-52.4°C0%0hPa0V00:00:0000:00:0000:00:00
ARGUS22026-09-01 00:58:0627.61989-82.57846312°5km/h12729m-12.4m/s-54.4°C0%0hPa0V00:00:0000:00:0000:00:00
ARGUS22026-09-01 00:57:4527.61967-82.57831317°9km/h12943m-8.4m/s-56.3°C0%0hPa0V00:00:0000:00:0000:00:00
ARGUS22026-09-01 00:57:2527.61904-82.57803344°15km/h13169m-11.1m/s-58.2°C0%0hPa0V00:00:0000:00:0000:00:00
ARGUS22026-09-01 00:57:0427.61820-82.5779724°18km/h13369m-9.6m/s-59.8°C0%0hPa0V00:00:0000:00:0000:00:00
ARGUS22026-09-01 00:56:4427.61756-82.5781946°11km/h13571m-9.5m/s-61.4°C0%0hPa0V00:00:0000:00:0000:00:00
ARGUS22026-09-01 00:56:2427.61723-82.57838117°15km/h13749m-9.5m/s-63.0°C0%0hPa0V00:00:0000:00:0000:00:00
ARGUS22026-09-01 00:56:0127.61713-82.57854247°5km/h13972m-9.5m/s-64.8°C0%0hPa0V00:00:0000:00:0000:00:00
ARGUS22026-09-01 00:55:3927.61720-82.57901184°4km/h14164m-9.6m/s-65.8°C0%0hPa0V00:00:0000:00:0000:00:00
ARGUS22026-09-01 00:55:1727.61739-82.57917266°7km/h14379m-9.8m/s-67.5°C0%0hPa0V00:00:0000:00:0000:00:00
ARGUS22026-09-01 00:54:5727.61765-82.57912241°15km/h14574m-10.1m/s-67.7°C0%0hPa0V00:00:0000:00:0000:00:00
ARGUS22026-09-01 00:54:3627.61829-82.57845247°16km/h14793m-10.7m/s-67.7°C0%0hPa0V00:00:0000:00:0000:00:00
ARGUS22026-09-01 00:54:1627.61899-82.57784243°16km/h15006m-10.8m/s-68.4°C0%0hPa0V00:00:0000:00:0000:00:00
ARGUS22026-09-01 00:53:5627.61926-82.57693317°20km/h15231m-10.9m/s-69.1°C0%0hPa0V00:00:0000:00:0000:00:00
ARGUS22026-09-01 00:53:3527.61909-82.57643289°16km/h15439m-10.9m/s-67.7°C0%0hPa0V00:00:0000:00:0000:00:00
ARGUS22026-09-01 00:53:1527.61893-82.57596290°13km/h15669m-12.0m/s-68.1°C0%0hPa0V00:00:0000:00:0000:00:00
ARGUS22026-09-01 00:52:5427.61823-82.57524342°26km/h15849m-8.7m/s-68.3°C0%0hPa0V00:00:0000:00:0000:00:00
ARGUS22026-09-01 00:52:3427.61697-82.5750912°20km/h16006m-7.0m/s-68.2°C0%0hPa0V00:00:0000:00:0000:00:00
ARGUS22026-09-01 00:52:1327.61603-82.5751225°20km/h16128m-5.8m/s-68.1°C0%0hPa0V00:00:0000:00:0000:00:00
ARGUS22026-09-01 00:51:5327.61538-82.5756574°15km/h16256m-5.8m/s-68.3°C0%0hPa0V00:00:0000:00:0000:00:00
ARGUS22026-09-01 00:51:3227.61531-82.57599167°7km/h16395m-7.8m/s-67.7°C0%0hPa0V00:00:0000:00:0000:00:00
ARGUS22026-09-01 00:51:1227.61566-82.57608139°22km/h16560m-7.9m/s-67.4°C0%0hPa0V00:00:0000:00:0000:00:00
ARGUS22026-09-01 00:50:5027.61647-82.57668171°33km/h16729m-8.1m/s-66.5°C0%0hPa0V00:00:0000:00:0000:00:00
ARGUS22026-09-01 00:50:3027.61759-82.57759142°20km/h16888m-8.6m/s-67.6°C0%0hPa0V00:00:0000:00:0000:00:00
ARGUS22026-09-01 00:50:0927.61825-82.57829126°13km/h17058m-7.4m/s-67.6°C0%0hPa0V00:00:0000:00:0000:00:00
ARGUS22026-09-01 00:49:4927.61904-82.57841179°37km/h17235m-8.9m/s-67.6°C0%0hPa0V00:00:0000:00:0000:00:00
ARGUS22026-09-01 00:49:0827.62034-82.57725236°16km/h17599m-7.9m/s-69.3°C0%0hPa0V00:00:0000:00:0000:00:00
ARGUS22026-09-01 00:48:4827.62027-82.57644248°26km/h17780m-9.4m/s-69.9°C0%0hPa0V00:00:0000:00:0000:00:00
ARGUS22026-09-01 00:48:2727.62088-82.57588155°16km/h17953m-9.0m/s-68.8°C0%0hPa0V00:00:0000:00:0000:00:00
ARGUS22026-09-01 00:48:0627.62121-82.57472264°15km/h18142m-9.8m/s-67.1°C0%0hPa0V00:00:0000:00:0000:00:00
ARGUS22026-09-01 00:47:4627.62148-82.57336211°40km/h18337m-10.3m/s-67.3°C0%0hPa0V00:00:0000:00:0000:00:00
ARGUS22026-09-01 00:47:2627.62109-82.57110272°86km/h18554m-10.3m/s-67.4°C0%0hPa0V00:00:0000:00:0000:00:00
ARGUS22026-09-01 00:47:0527.62043-82.5695326°27km/h18746m-11.9m/s-65.9°C0%0hPa0V00:00:0000:00:0000:00:00
ARGUS22026-09-01 00:46:4527.62138-82.56809256°47km/h18949m-9.5m/s-63.7°C0%0hPa0V00:00:0000:00:0000:00:00
ARGUS22026-09-01 00:46:2427.62149-82.56547282°37km/h19182m-11.4m/s-65.0°C0%0hPa0V00:00:0000:00:0000:00:00
ARGUS22026-09-01 00:46:0427.62153-82.56335210°35km/h19437m-9.5m/s-65.4°C0%0hPa0V00:00:0000:00:0000:00:00
ARGUS22026-09-01 00:45:4327.62171-82.56110247°35km/h19669m-11.6m/s-64.4°C0%0hPa0V00:00:0000:00:0000:00:00
ARGUS22026-09-01 00:45:2327.62124-82.55939344°37km/h19910m-11.5m/s-63.9°C0%0hPa0V00:00:0000:00:0000:00:00
ARGUS22026-09-01 00:45:0127.62104-82.55845262°29km/h20116m-6.9m/s-61.4°C0%0hPa0V00:00:0000:00:0000:00:00
ARGUS22026-09-01 00:44:4127.62147-82.55694222°40km/h20334m-11.8m/s-60.2°C0%0hPa0V00:00:0000:00:0000:00:00
ARGUS22026-09-01 00:44:2027.62222-82.55543262°31km/h20556m-12.0m/s-58.8°C0%0hPa0V00:00:0000:00:0000:00:00
ARGUS22026-09-01 00:44:0027.62271-82.55321265°60km/h20798m-12.1m/s-57.7°C0%0hPa0V00:00:0000:00:0000:00:00
ARGUS22026-09-01 00:43:4027.62229-82.55070281°40km/h21058m-16.8m/s-57.7°C0%0hPa0V00:00:0000:00:0000:00:00
ARGUS22026-09-01 00:43:1927.62258-82.54879279°42km/h21269m-11.1m/s-57.2°C0%0hPa0V00:00:0000:00:0000:00:00
ARGUS22026-09-01 00:42:5827.62232-82.54720302°20km/h21495m3.0m/s-58.2°C0%0hPa0V00:00:0000:00:0000:00:00
ARGUS22026-09-01 00:42:4727.62202-82.54613285°22km/h21449m2.1m/s-58.1°C0%0hPa0V00:00:0000:00:0000:00:00
ARGUS22026-09-01 00:42:1827.62147-82.54446288°38km/h21408m1.4m/s-58.0°C0%0hPa0V00:00:0000:00:0000:00:00
ARGUS22026-09-01 00:41:5727.62116-82.54259270°27km/h21368m2.2m/s-57.9°C0%0hPa0V00:00:0000:00:0000:00:00
ARGUS22026-09-01 00:41:3727.62105-82.54065271°31km/h21324m2.7m/s-57.7°C0%0hPa0V00:00:0000:00:0000:00:00
ARGUS22026-09-01 00:41:1627.62114-82.53866264°40km/h21278m2.5m/s-58.2°C0%0hPa0V00:00:0000:00:0000:00:00
ARGUS22026-09-01 00:40:5627.62165-82.53653253°33km/h21222m2.7m/s-58.4°C0%0hPa0V00:00:0000:00:0000:00:00
ARGUS22026-09-01 00:40:3527.62212-82.53440258°44km/h21159m3.0m/s-58.4°C0%0hPa0V00:00:0000:00:0000:00:00
ARGUS22026-09-01 00:40:1527.62207-82.53223278°29km/h21086m3.3m/s-58.6°C0%0hPa0V00:00:0000:00:0000:00:00
ARGUS22026-09-01 00:39:5427.62180-82.52997281°47km/h21014m3.1m/s-58.3°C0%0hPa0V00:00:0000:00:0000:00:00
ARGUS22026-09-01 00:39:3427.62135-82.52734284°46km/h20940m3.3m/s-58.1°C0%0hPa0V00:00:0000:00:0000:00:00
ARGUS22026-09-01 00:39:1327.62120-82.52478270°55km/h20876m3.2m/s-58.2°C0%0hPa0V00:00:0000:00:0000:00:00
ARGUS22026-09-01 00:38:3227.62200-82.51866257°53km/h20775m1.5m/s-58.5°C0%0hPa0V00:00:0000:00:0000:00:00
ARGUS22026-09-01 00:38:1127.62272-82.51627249°42km/h20741m2.3m/s-59.0°C0%0hPa0V00:00:0000:00:0000:00:00
ARGUS22026-09-01 00:37:5027.62353-82.51385242°40km/h20712m1.1m/s-59.3°C0%0hPa0V00:00:0000:00:0000:00:00
ARGUS22026-09-01 00:37:3027.62454-82.51189233°33km/h20682m2.0m/s-60.0°C0%0hPa0V00:00:0000:00:0000:00:00
ARGUS22026-09-01 00:37:1027.62532-82.51032238°29km/h20643m1.8m/s-60.2°C0%0hPa0V00:00:0000:00:0000:00:00
ARGUS22026-09-01 00:36:4927.62621-82.50901232°33km/h20598m1.5m/s-60.4°C0%0hPa0V00:00:0000:00:0000:00:00
ARGUS22026-09-01 00:36:2927.62708-82.50748234°35km/h20547m1.9m/s-60.6°C0%0hPa0V00:00:0000:00:0000:00:00
ARGUS22026-09-01 00:36:0727.62803-82.50616211°24km/h20491m2.8m/s-61.1°C0%0hPa0V00:00:0000:00:0000:00:00
ARGUS22026-09-01 00:35:4627.62898-82.50504254°18km/h20433m3.2m/s-61.3°C0%0hPa0V00:00:0000:00:0000:00:00
ARGUS22026-09-01 00:35:2627.62952-82.50387237°24km/h20370m2.6m/s-61.1°C0%0hPa0V00:00:0000:00:0000:00:00
ARGUS22026-09-01 00:35:0527.62973-82.50282261°22km/h20314m2.7m/s-60.9°C0%0hPa0V00:00:0000:00:0000:00:00
ARGUS22026-09-01 00:34:4427.62966-82.50171295°24km/h20264m2.3m/s-60.8°C0%0hPa0V00:00:0000:00:0000:00:00
ARGUS22026-09-01 00:34:2427.62958-82.50004260°33km/h20210m2.5m/s-61.4°C0%0hPa0V00:00:0000:00:0000:00:00
ARGUS22026-09-01 00:34:0327.62985-82.49830263°26km/h20162m2.0m/s-61.7°C0%0hPa0V00:00:0000:00:0000:00:00
ARGUS22026-09-01 00:33:4327.63010-82.49673265°26km/h20120m1.9m/s-61.9°C0%0hPa0V00:00:0000:00:0000:00:00
ARGUS22026-09-01 00:33:2027.63011-82.49547276°18km/h20075m2.4m/s-62.2°C0%0hPa0V00:00:0000:00:0000:00:00
ARGUS22026-09-01 00:33:0027.63007-82.49453274°18km/h20033m2.0m/s-62.5°C0%0hPa0V00:00:0000:00:0000:00:00
ARGUS22026-09-01 00:32:3927.62977-82.49387292°13km/h19988m2.3m/s-62.8°C0%0hPa0V00:00:0000:00:0000:00:00
ARGUS22026-09-01 00:32:1927.62936-82.49303306°22km/h19938m2.8m/s-63.8°C0%0hPa0V00:00:0000:00:0000:00:00
ARGUS22026-09-01 00:31:5827.62882-82.49187309°27km/h19887m3.4m/s-63.9°C0%0hPa0V00:00:0000:00:0000:00:00
ARGUS22026-09-01 00:31:3827.62791-82.49066326°24km/h19828m2.4m/s-63.8°C0%0hPa0V00:00:0000:00:0000:00:00
ARGUS22026-09-01 00:30:5727.62560-82.48780304°37km/h19714m1.9m/s-64.2°C0%0hPa0V00:00:0000:00:0000:00:00
ARGUS22026-09-01 00:30:3527.62484-82.48580276°33km/h19649m3.2m/s-64.0°C0%0hPa0V00:00:0000:00:0000:00:00
ARGUS22026-09-01 00:30:1527.62420-82.48380305°33km/h19589m2.3m/s-63.8°C0%0hPa0V00:00:0000:00:0000:00:00
ARGUS22026-09-01 00:29:5527.62392-82.48191281°35km/h19524m3.4m/s-64.4°C0%0hPa0V00:00:0000:00:0000:00:00
ARGUS22026-09-01 00:29:3427.62386-82.47984257°38km/h19460m3.6m/s-64.1°C0%0hPa0V00:00:0000:00:0000:00:00
ARGUS22026-09-01 00:29:1427.62411-82.47787256°35km/h19391m3.1m/s-64.3°C0%0hPa0V00:00:0000:00:0000:00:00
ARGUS22026-09-01 00:28:5327.62477-82.47631238°29km/h19334m2.6m/s-64.3°C0%0hPa0V00:00:0000:00:0000:00:00
ARGUS22026-09-01 00:28:3327.62554-82.47477246°33km/h19279m2.3m/s-64.4°C0%0hPa0V00:00:0000:00:0000:00:00
ARGUS22026-09-01 00:28:1227.62616-82.47314252°31km/h19230m2.5m/s-64.3°C0%0hPa0V00:00:0000:00:0000:00:00
ARGUS22026-09-01 00:27:5127.62663-82.47148257°35km/h19176m2.5m/s-64.3°C0%0hPa0V00:00:0000:00:0000:00:00
ARGUS22026-09-01 00:27:3027.62658-82.46925269°40km/h19127m2.4m/s-64.3°C0%0hPa0V00:00:0000:00:0000:00:00
ARGUS22026-09-01 00:27:1127.62661-82.46707265°46km/h19080m2.3m/s-64.1°C0%0hPa0V00:00:0000:00:0000:00:00
ARGUS22026-09-01 00:26:4927.62706-82.46490257°35km/h19033m2.0m/s-63.9°C0%0hPa0V00:00:0000:00:0000:00:00
ARGUS22026-09-01 00:26:2927.62750-82.46297256°37km/h18988m2.4m/s-63.8°C0%0hPa0V00:00:0000:00:0000:00:00
ARGUS22026-09-01 00:26:0927.62799-82.46088253°37km/h18938m2.1m/s-64.0°C0%0hPa0V00:00:0000:00:0000:00:00
ARGUS22026-09-01 00:25:4827.62876-82.45915237°31km/h18890m3.0m/s-64.5°C0%0hPa0V00:00:0000:00:0000:00:00
ARGUS22026-09-01 00:25:2827.62977-82.45769234°35km/h18835m2.1m/s-65.1°C0%0hPa0V00:00:0000:00:0000:00:00
ARGUS22026-09-01 00:25:0727.63053-82.45681226°18km/h18783m3.0m/s-65.9°C0%0hPa0V00:00:0000:00:0000:00:00
ARGUS22026-09-01 00:24:4627.63073-82.45607265°5km/h18727m3.0m/s-66.8°C0%0hPa0V00:00:0000:00:0000:00:00
ARGUS22026-09-01 00:24:2627.63051-82.45506293°31km/h18673m2.8m/s-67.3°C0%0hPa0V00:00:0000:00:0000:00:00
ARGUS22026-09-01 00:24:0527.62983-82.45336298°35km/h18609m2.4m/s-67.2°C0%0hPa0V00:00:0000:00:0000:00:00
ARGUS22026-09-01 00:23:4527.62880-82.45138300°42km/h18555m2.8m/s-67.0°C0%0hPa0V00:00:0000:00:0000:00:00
ARGUS22026-09-01 00:23:2427.62787-82.44892287°38km/h18500m2.2m/s-67.5°C0%0hPa0V00:00:0000:00:0000:00:00
ARGUS22026-09-01 00:23:0427.62734-82.44675280°44km/h18456m2.2m/s-67.8°C0%0hPa0V00:00:0000:00:0000:00:00
ARGUS22026-09-01 00:22:4427.62709-82.44440277°38km/h18406m2.6m/s-67.8°C0%0hPa0V00:00:0000:00:0000:00:00
ARGUS22026-09-01 00:22:2327.62706-82.44250275°33km/h18355m2.8m/s-67.9°C0%0hPa0V00:00:0000:00:0000:00:00
ARGUS22026-09-01 00:22:0327.62740-82.44079231°27km/h18301m3.1m/s-67.9°C0%0hPa0V00:00:0000:00:0000:00:00
ARGUS22026-09-01 00:21:4127.62810-82.43923249°29km/h18245m3.1m/s-68.0°C0%0hPa0V00:00:0000:00:0000:00:00
ARGUS22026-09-01 00:21:2127.62885-82.43771231°31km/h18184m3.5m/s-68.6°C0%0hPa0V00:00:0000:00:0000:00:00
ARGUS22026-09-01 00:21:0027.62999-82.43628215°26km/h18118m3.0m/s-68.7°C0%0hPa0V00:00:0000:00:0000:00:00
ARGUS22026-09-01 00:20:4027.63138-82.43535212°37km/h18051m3.6m/s-69.1°C0%0hPa0V00:00:0000:00:0000:00:00
ARGUS22026-09-01 00:20:1927.63314-82.43488198°33km/h17986m3.2m/s-69.3°C0%0hPa0V00:00:0000:00:0000:00:00
ARGUS22026-09-01 00:20:0027.63454-82.43470198°13km/h17930m2.5m/s-69.8°C0%0hPa0V00:00:0000:00:0000:00:00
ARGUS22026-09-01 00:19:3927.63586-82.43452177°24km/h17871m2.9m/s-69.5°C0%0hPa0V00:00:0000:00:0000:00:00
ARGUS22026-09-01 00:19:1827.63689-82.43445196°13km/h17816m2.7m/s-69.2°C0%0hPa0V00:00:0000:00:0000:00:00
ARGUS22026-09-01 00:18:5827.63776-82.43429173°24km/h17757m2.7m/s-69.3°C0%0hPa0V00:00:0000:00:0000:00:00
ARGUS22026-09-01 00:18:3727.63819-82.43394212°16km/h17702m2.6m/s-69.8°C0%0hPa0V00:00:0000:00:0000:00:00
ARGUS22026-09-01 00:18:1727.63839-82.43326235°22km/h17644m2.9m/s-69.4°C0%0hPa0V00:00:0000:00:0000:00:00
ARGUS22026-09-01 00:17:5627.63878-82.43268245°13km/h17588m2.8m/s-69.1°C0%0hPa0V00:00:0000:00:0000:00:00
ARGUS22026-09-01 00:17:3627.63927-82.43208218°15km/h17536m2.5m/s-68.7°C0%0hPa0V00:00:0000:00:0000:00:00
ARGUS22026-09-01 00:17:1527.63974-82.43162245°13km/h17487m2.4m/s-68.4°C0%0hPa0V00:00:0000:00:0000:00:00
ARGUS22026-09-01 00:16:5527.64038-82.43114234°9km/h17434m2.2m/s-68.1°C0%0hPa0V00:00:0000:00:0000:00:00
ARGUS22026-09-01 00:16:3327.64121-82.43067231°11km/h17380m2.7m/s-67.7°C0%0hPa0V00:00:0000:00:0000:00:00
ARGUS22026-09-01 00:16:1327.64201-82.43020186°7km/h17330m3.0m/s-67.3°C0%0hPa0V00:00:0000:00:0000:00:00
ARGUS22026-09-01 00:15:5227.64285-82.42980192°15km/h17272m2.4m/s-67.0°C0%0hPa0V00:00:0000:00:0000:00:00
ARGUS22026-09-01 00:15:3227.64369-82.42937183°22km/h17223m2.2m/s-66.8°C0%0hPa0V00:00:0000:00:0000:00:00
ARGUS22026-09-01 00:15:1227.64457-82.42914171°27km/h17168m2.6m/s-67.0°C0%0hPa0V00:00:0000:00:0000:00:00
ARGUS22026-09-01 00:14:5127.64549-82.42912187°20km/h17115m3.7m/s-67.3°C0%0hPa0V00:00:0000:00:0000:00:00
ARGUS22026-09-01 00:14:3127.64622-82.42947183°11km/h17055m2.3m/s-67.0°C0%0hPa0V00:00:0000:00:0000:00:00
ARGUS22026-09-01 00:14:1027.64690-82.4299392°11km/h16993m3.6m/s-66.7°C0%0hPa0V00:00:0000:00:0000:00:00
ARGUS22026-09-01 00:13:5027.64730-82.43051110°16km/h16926m3.0m/s-66.5°C0%0hPa0V00:00:0000:00:0000:00:00
ARGUS22026-09-01 00:13:2927.64759-82.43113119°18km/h16865m2.7m/s-66.9°C0%0hPa0V00:00:0000:00:0000:00:00
ARGUS22026-09-01 00:13:0827.64816-82.43182163°27km/h16796m3.2m/s-67.3°C0%0hPa0V00:00:0000:00:0000:00:00
ARGUS22026-09-01 00:12:4827.64901-82.43256170°18km/h16729m3.1m/s-67.3°C0%0hPa0V00:00:0000:00:0000:00:00
ARGUS22026-09-01 00:12:2827.64986-82.43337122°9km/h16659m3.7m/s-67.8°C0%0hPa0V00:00:0000:00:0000:00:00
ARGUS22026-09-01 00:12:0727.65022-82.43430147°24km/h16595m2.8m/s-67.6°C0%0hPa0V00:00:0000:00:0000:00:00
ARGUS22026-09-01 00:11:4727.65059-82.43498150°13km/h16533m2.9m/s-67.7°C0%0hPa0V00:00:0000:00:0000:00:00
ARGUS22026-09-01 00:11:2527.65087-82.43520129°15km/h16472m2.1m/s-68.1°C0%0hPa0V00:00:0000:00:0000:00:00
ARGUS22026-09-01 00:11:0527.65109-82.4354573°11km/h16419m2.5m/s-68.3°C0%0hPa0V00:00:0000:00:0000:00:00
ARGUS22026-09-01 00:10:4527.65102-82.4360533°9km/h16363m2.3m/s-68.6°C0%0hPa0V00:00:0000:00:0000:00:00
ARGUS22026-09-01 00:10:2427.65078-82.43687105°13km/h16311m3.1m/s-68.7°C0%0hPa0V00:00:0000:00:0000:00:00
ARGUS22026-09-01 00:10:0427.65028-82.4377050°11km/h16250m2.4m/s-68.5°C0%0hPa0V00:00:0000:00:0000:00:00
ARGUS22026-09-01 00:09:4327.64972-82.4381655°15km/h16192m3.5m/s-68.0°C0%0hPa0V00:00:0000:00:0000:00:00
ARGUS22026-09-01 00:09:2327.64903-82.4384440°18km/h16124m3.1m/s-67.6°C0%0hPa0V00:00:0000:00:0000:00:00
ARGUS22026-09-01 00:09:0227.64853-82.43837351°20km/h16061m3.1m/s-67.7°C0%0hPa0V00:00:0000:00:0000:00:00
ARGUS22026-09-01 00:08:4227.64791-82.43809319°27km/h15997m2.6m/s-67.8°C0%0hPa0V00:00:0000:00:0000:00:00
ARGUS22026-09-01 00:08:2127.64714-82.43782325°13km/h15925m3.6m/s-69.0°C0%0hPa0V00:00:0000:00:0000:00:00
ARGUS22026-09-01 00:08:0127.64624-82.43723354°16km/h15847m4.1m/s-68.6°C0%0hPa0V00:00:0000:00:0000:00:00
ARGUS22026-09-01 00:07:4027.64527-82.43613283°35km/h15776m3.4m/s-68.5°C0%0hPa0V00:00:0000:00:0000:00:00
ARGUS22026-09-01 00:07:2027.64436-82.43445291°42km/h15711m3.4m/s-68.1°C0%0hPa0V00:00:0000:00:0000:00:00
ARGUS22026-09-01 00:06:5927.64366-82.43281302°26km/h15646m3.5m/s-68.6°C0%0hPa0V00:00:0000:00:0000:00:00
ARGUS22026-09-01 00:06:3927.64328-82.43123269°16km/h15582m3.1m/s-68.3°C0%0hPa0V00:00:0000:00:0000:00:00
ARGUS22026-09-01 00:06:1827.64309-82.42971267°29km/h15514m2.5m/s-68.6°C0%0hPa0V00:00:0000:00:0000:00:00
ARGUS22026-09-01 00:05:5727.64266-82.42859305°35km/h15455m3.2m/s-68.9°C0%0hPa0V00:00:0000:00:0000:00:00
ARGUS22026-09-01 00:05:3827.64188-82.42714323°31km/h15390m3.4m/s-68.8°C0%0hPa0V00:00:0000:00:0000:00:00
ARGUS22026-09-01 00:05:1727.64094-82.42583306°38km/h15331m3.2m/s-68.7°C0%0hPa0V00:00:0000:00:0000:00:00
ARGUS22026-09-01 00:04:5627.64007-82.42451316°24km/h15274m3.5m/s-69.3°C0%0hPa0V00:00:0000:00:0000:00:00
ARGUS22026-09-01 00:04:3627.63953-82.42337300°37km/h15215m2.5m/s-69.5°C0%0hPa0V00:00:0000:00:0000:00:00
ARGUS22026-09-01 00:04:1527.63937-82.42233265°15km/h15149m2.8m/s-69.2°C0%0hPa0V00:00:0000:00:0000:00:00
ARGUS22026-09-01 00:03:5527.63939-82.42140236°24km/h15095m2.6m/s-69.8°C0%0hPa0V00:00:0000:00:0000:00:00
ARGUS22026-09-01 00:03:3127.64049-82.41993259°16km/h14991m2.4m/s-69.7°C0%0hPa0V00:00:0000:00:0000:00:00
ARGUS22026-09-01 00:03:1427.64108-82.41930187°22km/h14939m2.8m/s-69.4°C0%0hPa0V00:00:0000:00:0000:00:00
ARGUS22026-09-01 00:02:4527.64162-82.41884188°11km/h14890m2.6m/s-69.2°C0%0hPa0V00:00:0000:00:0000:00:00
ARGUS22026-09-01 00:02:1527.64232-82.41864210°24km/h14838m3.5m/s-69.5°C0%0hPa0V00:00:0000:00:0000:00:00
ARGUS22026-09-01 00:01:4127.64383-82.41884215°18km/h14729m4.1m/s-69.1°C0%0hPa0V00:00:0000:00:0000:00:00
ARGUS22026-09-01 00:01:1327.64433-82.41882185°7km/h14669m2.2m/s-69.1°C0%0hPa0V00:00:0000:00:0000:00:00
ARGUS22026-09-01 00:00:5527.64446-82.41853142°11km/h14619m2.8m/s-69.0°C0%0hPa0V00:00:0000:00:0000:00:00
ARGUS22026-09-01 00:00:3027.64450-82.41837146°4km/h14559m3.0m/s-68.6°C0%0hPa0V00:00:0000:00:0000:00:00
ARGUS22026-09-01 00:00:0927.64454-82.41836146°9km/h14496m2.0m/s-68.3°C0%0hPa0V00:00:0000:00:0000:00:00
ARGUS22026-08-31 23:59:4827.64454-82.41829188°5km/h14424m5.4m/s-67.7°C0%0hPa0V00:00:0000:00:0000:00:00
ARGUS22026-08-31 23:59:2727.64465-82.41801247°16km/h14354m4.3m/s-67.1°C0%0hPa0V00:00:0000:00:0000:00:00
ARGUS22026-08-31 23:59:0627.64466-82.41783305°16km/h14285m2.8m/s-66.5°C0%0hPa0V00:00:0000:00:0000:00:00
ARGUS22026-08-31 23:58:4627.64460-82.41750171°5km/h14225m2.1m/s-66.1°C0%0hPa0V00:00:0000:00:0000:00:00
ARGUS22026-08-31 23:58:2627.64432-82.41723315°16km/h14164m3.2m/s-65.9°C0%0hPa0V00:00:0000:00:0000:00:00
ARGUS22026-08-31 23:58:0527.64398-82.41713356°15km/h14095m5.0m/s-65.4°C0%0hPa0V00:00:0000:00:0000:00:00
ARGUS22026-08-31 23:57:4427.64353-82.4173353°4km/h14021m3.8m/s-64.8°C0%0hPa0V00:00:0000:00:0000:00:00
ARGUS22026-08-31 23:57:2427.64301-82.4173524°7km/h13956m2.3m/s-64.2°C0%0hPa0V00:00:0000:00:0000:00:00
ARGUS22026-08-31 23:57:0327.64240-82.41733340°27km/h13880m5.0m/s-63.5°C0%0hPa0V00:00:0000:00:0000:00:00
ARGUS22026-08-31 23:56:4327.64164-82.41688333°16km/h13817m1.5m/s-62.9°C0%0hPa0V00:00:0000:00:0000:00:00
ARGUS22026-08-31 23:56:2327.64082-82.41637352°15km/h13747m3.6m/s-62.3°C0%0hPa0V00:00:0000:00:0000:00:00
ARGUS22026-08-31 23:56:0127.64013-82.41566302°27km/h13679m2.4m/s-61.8°C0%0hPa0V00:00:0000:00:0000:00:00
ARGUS22026-08-31 23:55:4127.63952-82.41495336°18km/h13629m2.0m/s-61.5°C0%0hPa0V00:00:0000:00:0000:00:00
ARGUS22026-08-31 23:55:2027.63885-82.41405328°11km/h13574m2.4m/s-61.1°C0%0hPa0V00:00:0000:00:0000:00:00
ARGUS22026-08-31 23:55:0027.63814-82.41308295°22km/h13511m5.4m/s-60.7°C0%0hPa0V00:00:0000:00:0000:00:00
ARGUS22026-08-31 23:54:4027.63751-82.41203312°15km/h13425m3.5m/s-60.2°C0%0hPa0V00:00:0000:00:0000:00:00
ARGUS22026-08-31 23:54:1927.63742-82.41151247°15km/h13335m6.8m/s-59.5°C0%0hPa0V00:00:0000:00:0000:00:00
ARGUS22026-08-31 23:53:5927.63731-82.41110256°2km/h13239m2.9m/s-58.7°C0%0hPa0V00:00:0000:00:0000:00:00
ARGUS22026-08-31 23:53:3927.63742-82.41070218°9km/h13164m3.3m/s-58.0°C0%0hPa0V00:00:0000:00:0000:00:00
ARGUS22026-08-31 23:53:1827.63730-82.41035320°11km/h13091m2.7m/s-57.4°C0%0hPa0V00:00:0000:00:0000:00:00
ARGUS22026-08-31 23:52:5727.63748-82.41014347°2km/h13032m3.0m/s-57.0°C0%0hPa0V00:00:0000:00:0000:00:00
ARGUS22026-08-31 23:52:3727.63760-82.40968279°18km/h12976m3.7m/s-56.5°C0%0hPa0V00:00:0000:00:0000:00:00
ARGUS22026-08-31 23:52:1627.63774-82.40923257°26km/h12916m5.4m/s-55.9°C0%0hPa0V00:00:0000:00:0000:00:00
ARGUS22026-08-31 23:51:5627.63783-82.40899313°5km/h12844m1.8m/s-55.3°C0%0hPa0V00:00:0000:00:0000:00:00
ARGUS22026-08-31 23:51:3527.63787-82.40869342°15km/h12766m3.6m/s-54.6°C0%0hPa0V00:00:0000:00:0000:00:00
ARGUS22026-08-31 23:51:1527.63794-82.40839316°4km/h12688m4.2m/s-54.0°C0%0hPa0V00:00:0000:00:0000:00:00
ARGUS22026-08-31 23:50:5427.63789-82.40825324°13km/h12611m3.7m/s-53.4°C0%0hPa0V00:00:0000:00:0000:00:00
ARGUS22026-08-31 23:50:3727.63796-82.40816134°13km/h12547m3.1m/s-52.8°C0%0hPa0V00:00:0000:00:0000:00:00
ARGUS22026-08-31 23:50:1227.63804-82.40806263°7km/h12478m3.0m/s-52.2°C0%0hPa0V00:00:0000:00:0000:00:00
ARGUS22026-08-31 23:49:5227.63799-82.40806238°2km/h12409m3.1m/s-51.6°C0%0hPa0V00:00:0000:00:0000:00:00
ARGUS22026-08-31 23:49:3227.63801-82.40793235°11km/h12335m4.7m/s-51.0°C0%0hPa0V00:00:0000:00:0000:00:00
ARGUS22026-08-31 23:49:1127.63799-82.40780257°5km/h12263m3.1m/s-50.4°C0%0hPa0V00:00:0000:00:0000:00:00
ARGUS22026-08-31 23:48:5127.63800-82.4075671°7km/h12194m3.1m/s-49.7°C0%0hPa0V00:00:0000:00:0000:00:00
ARGUS22026-08-31 23:48:3127.63798-82.40753317°11km/h12125m2.6m/s-49.1°C0%0hPa0V00:00:0000:00:0000:00:00
ARGUS22026-08-31 23:48:1027.63806-82.40758309°7km/h12050m2.9m/s-48.5°C0%0hPa0V00:00:0000:00:0000:00:00
ARGUS22026-08-31 23:47:4927.63810-82.4075582°15km/h11976m3.0m/s-47.9°C0%0hPa0V00:00:0000:00:0000:00:00
ARGUS22026-08-31 23:47:2927.63805-82.407700km/h11892m2.8m/s-47.2°C0%0hPa0V00:00:0000:00:0000:00:00
ARGUS22026-08-31 23:47:0827.63826-82.40764326°13km/h11815m4.1m/s-46.5°C0%0hPa0V00:00:0000:00:0000:00:00
ARGUS22026-08-31 23:46:4827.63817-82.4080673°9km/h11722m3.6m/s-45.7°C0%0hPa0V00:00:0000:00:0000:00:00
ARGUS22026-08-31 23:46:0727.63851-82.40872128°15km/h11526m3.9m/s-44.2°C0%0hPa0V00:00:0000:00:0000:00:00
ARGUS22026-08-31 23:45:4627.63892-82.40907156°13km/h11433m5.7m/s-43.4°C0%0hPa0V00:00:0000:00:0000:00:00
ARGUS22026-08-31 23:45:2527.63949-82.40932188°9km/h11351m2.3m/s-42.7°C0%0hPa0V00:00:0000:00:0000:00:00
ARGUS22026-08-31 23:45:0527.63998-82.40982153°7km/h11261m6.1m/s-42.0°C0%0hPa0V00:00:0000:00:0000:00:00
ARGUS22026-08-31 23:44:4427.64059-82.41008119°11km/h11161m5.3m/s-41.2°C0%0hPa0V00:00:0000:00:0000:00:00
ARGUS22026-08-31 23:44:2327.64124-82.41043145°4km/h11072m3.3m/s-40.4°C0%0hPa0V00:00:0000:00:0000:00:00
ARGUS22026-08-31 23:44:0427.64192-82.41080169°24km/h10982m4.9m/s-39.7°C0%0hPa0V00:00:0000:00:0000:00:00
ARGUS22026-08-31 23:43:4327.64261-82.41123135°13km/h10884m6.2m/s-38.9°C0%0hPa0V00:00:0000:00:0000:00:00
ARGUS22026-08-31 23:43:2227.64317-82.41167178°18km/h10769m7.8m/s-37.6°C0%0hPa0V00:00:0000:00:0000:00:00
ARGUS22026-08-31 23:42:4127.64392-82.41233130°13km/h10489m6.8m/s-35.3°C0%0hPa0V00:00:0000:00:0000:00:00
ARGUS22026-08-31 23:42:2127.64453-82.41283101°18km/h10362m6.2m/s-34.3°C0%0hPa0V00:00:0000:00:0000:00:00
ARGUS22026-08-31 23:42:0027.64491-82.41341145°9km/h10247m5.3m/s-33.4°C0%0hPa0V00:00:0000:00:0000:00:00
ARGUS22026-08-31 23:41:4027.64528-82.41393162°2km/h10124m5.3m/s-32.3°C0%0hPa0V00:00:0000:00:0000:00:00
ARGUS22026-08-31 23:41:1927.64552-82.41412144°15km/h10013m4.9m/s-31.5°C0%0hPa0V00:00:0000:00:0000:00:00
ARGUS22026-08-31 23:40:5927.64597-82.41430102°7km/h9896m5.9m/s-30.6°C0%0hPa0V00:00:0000:00:0000:00:00
ARGUS22026-08-31 23:40:3827.64602-82.4146996°15km/h9786m5.5m/s-29.7°C0%0hPa0V00:00:0000:00:0000:00:00
ARGUS22026-08-31 23:40:1827.64610-82.41500111°16km/h9683m5.3m/s-29.0°C0%0hPa0V00:00:0000:00:0000:00:00
ARGUS22026-08-31 23:39:5627.64639-82.41536117°9km/h9590m2.7m/s-28.2°C0%0hPa0V00:00:0000:00:0000:00:00
ARGUS22026-08-31 23:39:3627.64659-82.41546165°9km/h9496m4.9m/s-27.5°C0%0hPa0V00:00:0000:00:0000:00:00
ARGUS22026-08-31 23:39:1527.64692-82.41562205°13km/h9407m3.4m/s-26.9°C0%0hPa0V00:00:0000:00:0000:00:00
ARGUS22026-08-31 23:38:5527.64717-82.41570360°5km/h9327m3.0m/s-26.3°C0%0hPa0V00:00:0000:00:0000:00:00
ARGUS22026-08-31 23:38:3527.64734-82.4158673°9km/h9253m3.4m/s-25.7°C0%0hPa0V00:00:0000:00:0000:00:00
ARGUS22026-08-31 23:38:1427.64734-82.41599110°7km/h9167m4.6m/s-25.1°C0%0hPa0V00:00:0000:00:0000:00:00
ARGUS22026-08-31 23:37:5427.64738-82.41606189°13km/h9087m3.9m/s-24.6°C0%0hPa0V00:00:0000:00:0000:00:00
ARGUS22026-08-31 23:37:3327.64752-82.4162433°5km/h9006m4.3m/s-24.1°C0%0hPa0V00:00:0000:00:0000:00:00
ARGUS22026-08-31 23:37:1327.64740-82.41621144°15km/h8930m3.1m/s-23.5°C0%0hPa0V00:00:0000:00:0000:00:00
ARGUS22026-08-31 23:36:5227.64733-82.41641146°9km/h8853m3.9m/s-22.9°C0%0hPa0V00:00:0000:00:0000:00:00
ARGUS22026-08-31 23:36:3227.64738-82.4164777°15km/h8767m4.3m/s-22.4°C0%0hPa0V00:00:0000:00:0000:00:00
ARGUS22026-08-31 23:36:1227.64735-82.41656284°11km/h8684m4.2m/s-21.8°C0%0hPa0V00:00:0000:00:0000:00:00
ARGUS22026-08-31 23:35:5127.64743-82.41656162°13km/h8599m3.5m/s-21.3°C0%0hPa0V00:00:0000:00:0000:00:00
ARGUS22026-08-31 23:35:3027.64766-82.41673265°13km/h8513m4.9m/s-20.7°C0%0hPa0V00:00:0000:00:0000:00:00
ARGUS22026-08-31 23:35:0927.64764-82.41682118°13km/h8428m4.2m/s-20.2°C0%0hPa0V00:00:0000:00:0000:00:00
ARGUS22026-08-31 23:34:4927.64786-82.41682159°13km/h8335m5.8m/s-19.6°C0%0hPa0V00:00:0000:00:0000:00:00
ARGUS22026-08-31 23:34:2827.64772-82.4169235°5km/h8247m3.8m/s-19.1°C0%0hPa0V00:00:0000:00:0000:00:00
ARGUS22026-08-31 23:34:0827.64759-82.4174778°18km/h8159m3.4m/s-18.6°C0%0hPa0V00:00:0000:00:0000:00:00
ARGUS22026-08-31 23:33:4727.64759-82.41795158°7km/h8075m4.6m/s-18.1°C0%0hPa0V00:00:0000:00:0000:00:00
ARGUS22026-08-31 23:33:2727.64750-82.4183533°15km/h7985m4.1m/s-17.8°C0%0hPa0V00:00:0000:00:0000:00:00
ARGUS22026-08-31 23:33:0627.64700-82.4184070°7km/h7905m5.2m/s-17.4°C0%0hPa0V00:00:0000:00:0000:00:00
ARGUS22026-08-31 23:32:4627.64654-82.4186842°15km/h7818m5.1m/s-16.9°C0%0hPa0V00:00:0000:00:0000:00:00
ARGUS22026-08-31 23:32:2627.64594-82.4188411°20km/h7721m4.0m/s-16.3°C0%0hPa0V00:00:0000:00:0000:00:00
ARGUS22026-08-31 23:32:0527.64532-82.41896345°16km/h7618m4.2m/s-15.7°C0%0hPa0V00:00:0000:00:0000:00:00
ARGUS22026-08-31 23:31:4427.64477-82.41916354°20km/h7525m4.3m/s-15.1°C0%0hPa0V00:00:0000:00:0000:00:00
ARGUS22026-08-31 23:31:2427.64431-82.4192233°22km/h7437m3.4m/s-14.3°C0%0hPa0V00:00:0000:00:0000:00:00
ARGUS22026-08-31 23:31:0327.64358-82.41975327°9km/h7345m4.3m/s-14.0°C0%0hPa0V00:00:0000:00:0000:00:00
ARGUS22026-08-31 23:30:4327.64331-82.4203040°26km/h7246m5.0m/s-13.4°C0%0hPa0V00:00:0000:00:0000:00:00
ARGUS22026-08-31 23:30:2227.64317-82.4206979°16km/h7163m4.1m/s-12.7°C0%0hPa0V00:00:0000:00:0000:00:00
ARGUS22026-08-31 23:29:2027.64361-82.42189157°20km/h6891m4.0m/s-11.2°C0%0hPa0V00:00:0000:00:0000:00:00
ARGUS22026-08-31 23:28:5927.64421-82.42237110°16km/h6791m4.6m/s-10.6°C0%0hPa0V00:00:0000:00:0000:00:00
ARGUS22026-08-31 23:28:3927.64474-82.42290112°15km/h6694m4.3m/s-10.1°C0%0hPa0V00:00:0000:00:0000:00:00
ARGUS22026-08-31 23:28:1827.64545-82.42324121°18km/h6583m4.6m/s-9.5°C0%0hPa0V00:00:0000:00:0000:00:00
ARGUS22026-08-31 23:27:5827.64622-82.42369123°18km/h6477m5.6m/s-8.9°C0%0hPa0V00:00:0000:00:0000:00:00
ARGUS22026-08-31 23:27:3727.64705-82.42411118°11km/h6363m5.4m/s-8.3°C0%0hPa0V00:00:0000:00:0000:00:00
ARGUS22026-08-31 23:27:1627.64778-82.42460134°20km/h6255m4.7m/s-7.9°C0%0hPa0V00:00:0000:00:0000:00:00
ARGUS22026-08-31 23:26:5627.64858-82.42467137°16km/h6154m4.4m/s-7.4°C0%0hPa0V00:00:0000:00:0000:00:00
ARGUS22026-08-31 23:26:3427.64933-82.42473192°7km/h6053m5.0m/s-6.9°C0%0hPa0V00:00:0000:00:0000:00:00
ARGUS22026-08-31 23:26:1327.65031-82.42473169°20km/h5951m4.6m/s-6.4°C0%0hPa0V00:00:0000:00:0000:00:00
ARGUS22026-08-31 23:25:5327.65132-82.42460228°18km/h5856m4.8m/s-5.9°C0%0hPa0V00:00:0000:00:0000:00:00
ARGUS22026-08-31 23:25:3327.65248-82.42424160°22km/h5762m4.2m/s-5.4°C0%0hPa0V00:00:0000:00:0000:00:00
ARGUS22026-08-31 23:25:1227.65364-82.42391172°16km/h5676m3.9m/s-5.0°C0%0hPa0V00:00:0000:00:0000:00:00
ARGUS22026-08-31 23:24:5127.65495-82.42352215°29km/h5586m4.7m/s-4.6°C0%0hPa0V00:00:0000:00:0000:00:00
ARGUS22026-08-31 23:24:3127.65634-82.42325167°29km/h5492m4.4m/s0°C0%0hPa0V00:00:0000:00:0000:00:00
ARGUS22026-08-31 23:22:3327.66134-82.42532157°24km/h4980m3.8m/s-1.4°C0%0hPa0V00:00:0000:00:0000:00:00
ARGUS22026-08-31 23:21:1027.66323-82.43041146°20km/h4649m3.6m/s-0.6°C0%0hPa0V00:00:0000:00:0000:00:00
ARGUS22026-08-31 23:20:4827.66396-82.43204112°37km/h4574m3.8m/s-0.1°C0%0hPa0V00:00:0000:00:0000:00:00
ARGUS22026-08-31 23:20:2727.66528-82.43331118°31km/h4500m2.7m/s-0.6°C0%0hPa0V00:00:0000:00:0000:00:00
ARGUS22026-08-31 23:12:5527.68703-82.43171214°26km/h2632m3.1m/s10.6°C0%0hPa0V00:00:0000:00:0000:00:00
ARGUS22026-08-31 23:12:3427.68812-82.43143206°13km/h2546m3.9m/s11.1°C0%0hPa0V00:00:0000:00:0000:00:00
ARGUS22026-08-31 23:12:1327.68914-82.43102227°15km/h2459m4.1m/s11.6°C0%0hPa0V00:00:0000:00:0000:00:00
ARGUS22026-08-31 23:11:5127.69025-82.43061180°16km/h2377m5.7m/s12.1°C0%0hPa0V00:00:0000:00:0000:00:00
ARGUS22026-08-31 23:11:1527.69191-82.42948231°27km/h2245m3.4m/s12.7°C0%0hPa0V00:00:0000:00:0000:00:00
ARGUS22026-08-31 23:10:5427.69288-82.42912197°13km/h2160m4.0m/s0°C0%0hPa0V00:00:0000:00:0000:00:00
ARGUS22026-08-31 23:06:4427.70217-82.41732266°37km/h1021m3.1m/s20.8°C0%0hPa0V00:00:0000:00:0000:00:00
ARGUS22026-08-31 23:05:5527.70377-82.41307245°47km/h807m4.8m/s21.7°C0%0hPa0V00:00:0000:00:0000:00:00


GPX KML Map

© wettersonde.net (DO2JMG) - 2026  -  -